Flight Track Log - Related Links

Times and Time Zones

All times are in EDT time to prevent confusion due to time zone crossing. See the N587DG flight status page for this flight to view local times or setup timezone preferences in your user account.

Time Position Orientation Groundspeed Altitude Reporting Facility
EDT Latitude Longitude Course Direction KTS MPH feet Rate Location/Type
Sun 08:33:29 AM 43.7000 -87.9000 206° Southwest 147 169 2,500  Level KMKE
Sun 08:34:35 AM 43.6500 -87.9333 206° Southwest 160 184 3,100 623 Climbing KMKE
Sun 08:35:15 AM 43.6403 -87.9503 232° Southwest 147 169 3,600 832 Climbing Chicago Center
Sun 08:36:16 AM 43.6103 -87.9700 205° Southwest 129 148 4,500 927 Climbing Chicago Center
Sun 08:37:18 AM 43.5736 -87.9964 208° Southwest 126 145 5,500 732 Climbing Chicago Center
Sun 08:38:19 AM 43.5400 -88.0211 208° Southwest 134 154 6,000 246 Climbing Chicago Center
Sun 08:39:20 AM 43.5011 -88.0481 207° Southwest 153 176 6,000  Level Chicago Center
Sun 08:40:22 AM 43.4608 -88.0758 207° Southwest 160 184 6,000  Level Chicago Center
Sun 08:41:23 AM 43.4239 -88.1033 208° Southwest 153 176 6,000  Level Chicago Center
Sun 08:42:25 AM 43.3878 -88.1275 206° Southwest 146 168 6,000  Level Chicago Center
Sun 08:43:26 AM 43.3508 -88.1533 207° Southwest 147 169 6,000  Level Chicago Center
Sun 08:44:27 AM 43.3133 -88.1783 206° Southwest 148 170 6,000  Level Chicago Center
Sun 08:45:29 AM 43.2767 -88.2058 209° Southwest 149 171 6,000  Level Chicago Center
Sun 08:46:30 AM 43.2397 -88.2308 206° Southwest 148 170 6,000  Level Chicago Center
Sun 08:47:32 AM 43.1964 -88.2614 207° Southwest 149 171 6,000  Level Chicago Center
Sun 08:48:33 AM 43.1603 -88.2878 208° Southwest 148 170 6,000  Level Chicago Center
Sun 08:49:35 AM 43.1228 -88.3131 206° Southwest 148 170 6,000  Level Chicago Center
Sun 08:50:36 AM 43.0856 -88.3397 208° Southwest 150 173 6,000  Level Chicago Center
Sun 08:51:37 AM 43.0481 -88.3661 207° Southwest 151 174 6,000  Level Chicago Center
Sun 08:52:39 AM 43.0111 -88.3911 206° Southwest 148 170 6,000  Level Chicago Center
Sun 08:53:40 AM 42.9739 -88.4169 207° Southwest 149 171 6,000  Level Chicago Center
Sun 08:54:42 AM 42.9358 -88.4431 207° Southwest 152 175 6,000  Level Chicago Center
Sun 08:55:43 AM 42.8989 -88.4692 207° Southwest 150 173 6,000  Level Chicago Center
Sun 08:56:45 AM 42.8542 -88.4994 206° Southwest 152 175 6,000  Level Chicago Center
Sun 08:57:46 AM 42.8175 -88.5253 207° Southwest 150 173 6,000  Level Chicago Center
Sun 08:58:47 AM 42.7783 -88.5519 207° Southwest 154 177 6,000  Level Chicago Center
Sun 08:59:49 AM 42.7406 -88.5778 207° Southwest 153 176 6,000  Level Chicago Center
Sun 09:00:50 AM 42.7025 -88.6039 207° Southwest 153 176 6,000  Level Chicago Center
Sun 09:01:52 AM 42.6644 -88.6303 207° Southwest 153 176 6,000  Level Chicago Center
Sun 09:02:53 AM 42.6272 -88.6564 207° Southwest 152 175 6,000  Level Chicago Center
Sun 09:03:55 AM 42.5883 -88.6828 207° Southwest 155 178 6,000  Level Chicago Center
Sun 09:04:56 AM 42.5436 -88.7131 207° Southwest 154 177 6,000  Level Chicago Center
Sun 09:05:58 AM 42.5047 -88.7394 207° Southwest 157 181 6,000  Level Chicago Center
Sun 09:06:59 AM 42.4661 -88.7667 207° Southwest 157 181 6,000  Level Chicago Center
Sun 09:08:00 AM 42.4253 -88.7856 199° South 155 178 6,000  Level Chicago Center
Sun 09:09:02 AM 42.3825 -88.7994 193° South 157 181 6,000  Level Chicago Center
Sun 09:10:03 AM 42.3414 -88.8161 197° South 154 177 6,000  Level Chicago Center
Sun 09:11:05 AM 42.2947 -88.8317 194° South 155 178 6,000  Level Chicago Center
Sun 09:12:06 AM 42.2578 -88.8472 197° South 155 178 6,000  Level Chicago Center
Sun 09:13:08 AM 42.2092 -88.8656 196° South 155 178 6,000  Level Chicago Center
Sun 09:14:09 AM 42.1664 -88.8800 194° South 158 182 6,000  Level Chicago Center
Sun 09:15:11 AM 42.1242 -88.8981 198° South 158 182 6,000  Level Chicago Center
Sun 09:16:13 AM 42.0825 -88.9128 195° South 155 178 6,000  Level Chicago Center
Sun 09:17:14 AM 42.0364 -88.9303 196° South 158 182 6,000  Level Chicago Center
Sun 09:18:16 AM 41.9953 -88.9447 195° South 155 178 6,000  Level Chicago Center
Sun 09:19:17 AM 41.9531 -88.9606 196° South 158 182 6,000  Level Chicago Center
Sun 09:20:19 AM 41.9119 -88.9758 195° South 156 180 6,000  Level Chicago Center
Sun 09:21:21 AM 41.8714 -88.9917 196° South 153 176 6,000  Level Chicago Center
Sun 09:22:22 AM 41.8300 -89.0058 194° South 154 177 6,000  Level Chicago Center
Sun 09:23:24 AM 41.7817 -89.0247 196° South 152 175 6,000  Level Chicago Center
Sun 09:24:26 AM 41.7411 -89.0383 194° South 152 175 6,000  Level Chicago Center
Sun 09:25:27 AM 41.7014 -89.0536 196° South 150 173 6,000 49 Level Chicago Center
Sun 09:26:29 AM 41.6611 -89.0689 196° South 151 174 6,100 48 Climbing Chicago Center
Sun 09:27:31 AM 41.6208 -89.0831 195° South 151 174 6,100  Level Chicago Center
Sun 09:28:32 AM 41.5808 -89.0981 196° South 150 173 6,100 -49 Level Chicago Center
Sun 09:29:34 AM 41.5322 -89.1153 195° South 151 174 6,000 -48 Descending Chicago Center
Sun 09:30:36 AM 41.4908 -89.1300 195° South 153 176 6,000  Level Chicago Center
Sun 09:31:38 AM 41.4508 -89.1453 196° South 152 175 6,000  Level Chicago Center
Sun 09:32:40 AM 41.4081 -89.1600 194° South 156 180 6,000  Level Chicago Center
Sun 09:33:41 AM 41.3675 -89.1742 195° South 154 177 6,000  Level Chicago Center
Sun 09:34:43 AM 41.3164 -89.1931 196° South 158 182 6,000  Level Chicago Center
Sun 09:35:45 AM 41.2808 -89.2072 197° South 155 178 6,000  Level Chicago Center
Sun 09:36:47 AM 41.2392 -89.2225 195° South 155 178 6,000  Level Chicago Center
Sun 09:37:49 AM 41.1900 -89.2411 196° South 154 177 6,000  Level Chicago Center
Sun 09:38:51 AM 41.1483 -89.2561 195° South 155 178 6,000  Level Chicago Center
Sun 09:39:53 AM 41.1067 -89.2711 195° South 154 177 6,000  Level Chicago Center
Sun 09:40:54 AM 41.0650 -89.2864 195° South 154 177 6,000  Level Chicago Center
Sun 09:41:56 AM 41.0228 -89.3008 194° South 156 180 6,000  Level Chicago Center
Sun 09:42:58 AM 40.9822 -89.3161 196° South 153 176 6,000  Level Chicago Center
Sun 09:44:00 AM 40.9392 -89.3222 186° South 153 176 6,000  Level Chicago Center
Sun 09:45:02 AM 40.8956 -89.3172 175° South 157 181 6,000  Level Chicago Center
Sun 09:46:04 AM 40.8444 -89.3183 181° South 155 178 6,000  Level Chicago Center
Sun 09:47:06 AM 40.8031 -89.3378 200° South 155 178 6,000  Level Chicago Center
Sun 09:48:08 AM 40.7611 -89.3531 195° South 156 180 6,000  Level Chicago Center
Sun 09:49:10 AM 40.7192 -89.3681 195° South 156 180 6,000  Level Chicago Center
Sun 09:50:12 AM 40.6775 -89.3828 195° South 154 177 6,000  Level Chicago Center
Sun 09:51:13 AM 40.6361 -89.3983 196° South 154 177 6,000  Level Chicago Center
Sun 09:52:15 AM 40.5947 -89.4150 197° South 155 178 6,000  Level Chicago Center
Sun 09:53:17 AM 40.5450 -89.4319 195° South 153 176 6,000  Level Chicago Center
Sun 09:54:20 AM 40.5039 -89.4478 196° South 153 176 6,000  Level Chicago Center
Sun 09:55:21 AM 40.4622 -89.4631 196° South 154 177 6,000  Level Chicago Center
Sun 09:56:23 AM 40.4211 -89.4803 198° South 154 177 6,000  Level Chicago Center
Sun 09:57:25 AM 40.3786 -89.4953 195° South 157 181 6,000  Level Chicago Center
Sun 09:58:27 AM 40.3361 -89.5111 196° South 158 182 6,000  Level Chicago Center
Sun 09:59:29 AM 40.2944 -89.5275 197° South 157 181 6,000  Level Chicago Center
Sun 10:00:32 AM 40.2431 -89.5467 196° South 159 183 6,000  Level Chicago Center
Sun 10:01:34 AM 40.2008 -89.5633 197° South 158 182 6,000  Level Chicago Center
Sun 10:02:36 AM 40.1594 -89.5781 195° South 156 180 6,000  Level Chicago Center
Sun 10:03:37 AM 40.1172 -89.5925 195° South 157 181 6,000  Level Chicago Center
Sun 10:04:39 AM 40.0747 -89.6081 196° South 158 182 6,000  Level Chicago Center
Sun 10:05:41 AM 40.0336 -89.6250 198° South 157 181 6,000  Level Chicago Center
Sun 10:06:43 AM 39.9911 -89.6386 194° South 157 181 6,000  Level Chicago Center
Sun 10:07:45 AM 39.9419 -89.6567 196° South 154 177 6,000  Level Chicago Center
Sun 10:08:47 AM 39.9014 -89.6725 197° South 154 177 6,000  Level Chicago Center
Sun 10:09:49 AM 39.8603 -89.6875 196° South 153 176 6,000  Level Chicago Center
Sun 10:10:51 AM 39.8206 -89.7039 198° South 151 174 6,000  Level Chicago Center
Sun 10:11:53 AM 39.7800 -89.7189 196° South 151 174 6,000  Level Chicago Center
Sun 10:12:55 AM 39.7397 -89.7325 195° South 150 173 6,000  Level Chicago Center
Sun 10:13:57 AM 39.7006 -89.7464 195° South 148 170 6,000 -290 Level Chicago Center
Sun 10:14:59 AM 39.6503 -89.7639 195° South 151 174 5,400 -500 Descending Chicago Center
Sun 10:16:09 AM 39.6031 -89.7819 196° South 157 181 4,900 -455 Descending Kansas City Center
Sun 10:17:11 AM 39.5606 -89.7983 197° South 158 182 4,400 -484 Descending Kansas City Center

Login

Don't have an account? Register now (free) for customized features, flight alerts, and more!